createdAt,value
2022-11-16T00:01:02.883Z,19.77
2022-11-16T00:03:30.769Z,19.35
2022-11-16T00:05:58.506Z,20.90
2022-11-16T00:08:28.436Z,18.73
2022-11-16T00:10:55.351Z,19.85
2022-11-16T00:13:22.374Z,20.73
2022-11-16T00:15:56.256Z,21.38
2022-11-16T00:18:23.734Z,20.70
2022-11-16T00:20:50.775Z,22.05
2022-11-16T00:23:18.105Z,21.17
2022-11-16T00:25:46.486Z,21.10
2022-11-16T00:28:13.507Z,19.55
2022-11-16T00:30:40.676Z,19.58
2022-11-16T00:33:08.426Z,19.83
2022-11-16T00:35:39.212Z,19.27
2022-11-16T00:38:06.385Z,20.85
2022-11-16T00:40:33.625Z,19.73
2022-11-16T00:43:02.027Z,19.73
2022-11-16T00:45:28.969Z,20.58
2022-11-16T00:48:00.286Z,20.85
2022-11-16T00:50:28.068Z,20.05
2022-11-16T00:52:55.032Z,20.13
2022-11-16T00:55:22.961Z,19.75
2022-11-16T00:57:50.106Z,19.58
2022-11-16T01:00:21.096Z,19.27
2022-11-16T01:02:48.233Z,20.33
2022-11-16T01:05:15.149Z,18.95
2022-11-16T01:07:42.105Z,19.48
2022-11-16T01:10:12.632Z,19.90
2022-11-16T01:12:39.792Z,19.40
2022-11-16T01:15:09.120Z,20.10
2022-11-16T01:17:38.490Z,20.98
2022-11-16T01:20:07.985Z,20.13
2022-11-16T01:22:35.809Z,20.80
2022-11-16T01:25:04.133Z,20.50
2022-11-16T01:27:31.186Z,20.17
2022-11-16T01:30:00.481Z,19.50
2022-11-16T01:32:27.517Z,19.35
2022-11-16T01:34:56.262Z,19.83
2022-11-16T01:37:30.239Z,20.05
2022-11-16T01:39:57.235Z,19.73
2022-11-16T01:42:28.260Z,20.23
2022-11-16T01:45:01.652Z,20.77
2022-11-16T01:47:29.619Z,19.55
2022-11-16T01:50:05.302Z,20.15
2022-11-16T01:55:04.189Z,20.55
2022-11-16T01:57:44.337Z,20.63
2022-11-16T02:00:13.949Z,20.73
2022-11-16T02:02:41.306Z,21.25
2022-11-16T02:05:21.994Z,20.85
2022-11-16T02:08:51.089Z,20.65
2022-11-16T02:11:44.293Z,22.33
2022-11-16T02:14:24.592Z,20.20
2022-11-16T02:16:58.736Z,21.83
2022-11-16T02:19:55.254Z,22.85
2022-11-16T02:22:34.474Z,22.73
2022-11-16T02:25:05.074Z,22.83
2022-11-16T02:28:10.658Z,22.92
2022-11-16T02:30:42.918Z,23.77
2022-11-16T02:33:13.453Z,23.23
2022-11-16T02:35:43.993Z,24.23
2022-11-16T02:38:17.333Z,21.95
2022-11-16T02:40:48.059Z,22.05
2022-11-16T02:43:26.495Z,21.50
2022-11-16T02:45:59.753Z,22.17
2022-11-16T02:48:34.521Z,22.00
2022-11-16T02:51:03.152Z,21.70
2022-11-16T02:53:36.530Z,21.38
2022-11-16T02:56:03.934Z,22.20
2022-11-16T02:58:32.198Z,22.00
2022-11-16T03:01:06.108Z,21.73
2022-11-16T03:03:38.288Z,21.63
2022-11-16T03:06:11.544Z,23.48
2022-11-16T03:08:42.247Z,21.67
2022-11-16T03:11:30.653Z,22.60
2022-11-16T03:14:03.562Z,22.98
2022-11-16T03:16:36.972Z,24.00
2022-11-16T03:19:09.119Z,24.02
2022-11-16T03:21:41.356Z,25.95
2022-11-16T03:24:08.902Z,23.73
2022-11-16T03:26:46.357Z,23.88
2022-11-16T03:29:18.824Z,24.00
2022-11-16T03:31:50.714Z,25.23
2022-11-16T03:34:25.688Z,22.30
2022-11-16T03:36:53.993Z,24.10
2022-11-16T03:39:24.932Z,23.48
2022-11-16T03:41:51.996Z,24.83
2022-11-16T03:44:20.687Z,24.48
2022-11-16T03:46:49.018Z,25.55
2022-11-16T03:49:20.305Z,25.13
2022-11-16T03:51:47.713Z,24.92
2022-11-16T03:54:15.373Z,22.85
2022-11-16T03:56:42.311Z,22.85
2022-11-16T03:59:09.493Z,24.63
2022-11-16T04:01:39.272Z,22.60
2022-11-16T04:04:32.092Z,24.75
2022-11-16T04:07:18.058Z,23.38
2022-11-16T04:10:03.303Z,24.52
2022-11-16T04:12:50.367Z,21.40
2022-11-16T04:18:23.453Z,21.75
2022-11-16T04:21:10.192Z,22.80
2022-11-16T04:23:55.837Z,21.88
2022-11-16T04:26:43.701Z,22.65
2022-11-16T04:29:11.581Z,21.75
2022-11-16T04:31:57.425Z,22.77
2022-11-16T04:34:43.373Z,22.90
2022-11-16T04:37:33.508Z,24.08
2022-11-16T04:40:01.284Z,23.33
2022-11-16T04:42:28.444Z,24.02
2022-11-16T04:45:13.832Z,22.70
2022-11-16T04:47:53.012Z,22.45
2022-11-16T04:50:23.545Z,25.02
2022-11-16T04:52:52.594Z,22.73
2022-11-16T04:55:20.560Z,24.17
2022-11-16T04:57:49.167Z,23.98
2022-11-16T05:00:17.573Z,22.75
2022-11-16T05:02:45.829Z,24.27
2022-11-16T05:05:12.883Z,23.05
2022-11-16T05:07:43.333Z,24.40
2022-11-16T05:10:17.999Z,22.92
2022-11-16T05:12:45.333Z,23.83
2022-11-16T05:15:12.337Z,24.30
2022-11-16T05:17:39.932Z,23.27
2022-11-16T05:20:31.339Z,24.55
2022-11-16T05:23:03.321Z,25.85
2022-11-16T05:25:36.956Z,28.13
2022-11-16T05:28:07.715Z,27.67
2022-11-16T05:30:38.997Z,31.10
2022-11-16T05:33:06.100Z,30.10
2022-11-16T05:35:37.909Z,30.42
2022-11-16T05:38:05.134Z,28.98
2022-11-16T05:40:37.508Z,29.00
2022-11-16T05:43:04.444Z,27.17
2022-11-16T05:45:37.483Z,27.08
2022-11-16T05:48:05.253Z,28.27
2022-11-16T05:50:34.702Z,28.63
2022-11-16T05:53:10.095Z,28.60
2022-11-16T05:55:39.504Z,28.90
2022-11-16T05:58:06.409Z,28.90
2022-11-16T06:00:34.457Z,28.90
2022-11-16T06:03:02.193Z,32.65
2022-11-16T06:05:40.018Z,28.23
2022-11-16T06:08:08.673Z,26.45
2022-11-16T06:10:37.021Z,26.05
2022-11-16T06:13:06.378Z,27.20
2022-11-16T06:15:36.992Z,28.40
2022-11-16T06:18:04.172Z,27.80
2022-11-16T06:20:31.149Z,28.10
2022-11-16T06:22:58.070Z,28.88
2022-11-16T06:25:25.593Z,25.75
2022-11-16T06:27:52.592Z,25.77
2022-11-16T06:30:21.718Z,27.52
2022-11-16T06:32:49.000Z,26.70
2022-11-16T06:35:16.669Z,27.15
2022-11-16T06:37:44.308Z,28.05
2022-11-16T06:40:11.956Z,26.67
2022-11-16T06:42:42.316Z,26.83
2022-11-16T06:45:11.802Z,27.40
2022-11-16T06:47:44.366Z,24.60
2022-11-16T06:50:11.887Z,25.02
2022-11-16T06:52:39.148Z,24.35
2022-11-16T06:55:07.805Z,22.63
2022-11-16T06:57:36.577Z,21.70
2022-11-16T07:00:05.864Z,20.70
2022-11-16T07:02:36.678Z,19.65
2022-11-16T07:05:06.645Z,20.55
2022-11-16T07:07:33.698Z,21.42
2022-11-16T07:10:01.689Z,19.30
2022-11-16T07:12:28.726Z,21.00
2022-11-16T07:14:57.854Z,21.02
2022-11-16T07:17:26.238Z,22.77
2022-11-16T07:19:53.548Z,25.40
2022-11-16T07:22:22.001Z,26.63
2022-11-16T07:24:50.740Z,24.23
2022-11-16T07:27:19.917Z,25.25
2022-11-16T07:29:50.125Z,25.05
2022-11-16T07:32:39.832Z,23.20
2022-11-16T07:35:22.646Z,22.60
2022-11-16T07:37:52.125Z,23.63
2022-11-16T07:40:19.347Z,22.83
2022-11-16T07:42:47.083Z,24.17
2022-11-16T07:45:33.819Z,21.08
2022-11-16T07:48:06.820Z,24.25
2022-11-16T07:50:54.096Z,23.70
2022-11-16T07:53:24.313Z,23.40
2022-11-16T07:55:53.470Z,21.48
2022-11-16T07:58:21.608Z,22.77
2022-11-16T08:00:50.216Z,21.77
2022-11-16T08:03:23.352Z,22.85
2022-11-16T08:05:59.385Z,23.60
2022-11-16T08:08:27.754Z,22.58
2022-11-16T08:10:59.749Z,23.30
2022-11-16T08:13:26.812Z,22.23
2022-11-16T08:15:54.284Z,23.02
2022-11-16T08:18:24.537Z,22.63
2022-11-16T08:20:51.469Z,23.95
2022-11-16T08:23:18.517Z,21.75
2022-11-16T08:25:46.857Z,22.55
2022-11-16T08:28:14.563Z,21.35
2022-11-16T08:30:42.921Z,22.15
2022-11-16T08:33:10.140Z,20.60
2022-11-16T08:35:37.181Z,20.08
2022-11-16T08:38:04.243Z,22.88
2022-11-16T08:40:33.667Z,21.27
2022-11-16T08:43:01.997Z,19.88
2022-11-16T08:45:29.055Z,22.08
2022-11-16T08:48:03.333Z,21.23
2022-11-16T08:50:44.178Z,22.17
2022-11-16T08:53:19.341Z,19.80
2022-11-16T08:55:46.315Z,20.15
2022-11-16T08:58:14.848Z,19.05
2022-11-16T09:00:41.938Z,18.33
2022-11-16T09:03:09.005Z,18.65
2022-11-16T09:05:36.248Z,18.35
2022-11-16T09:08:03.261Z,17.83
2022-11-16T09:10:30.342Z,17.23
2022-11-16T09:13:00.331Z,16.48
2022-11-16T09:15:28.799Z,17.15
2022-11-16T09:17:55.753Z,17.63
2022-11-16T09:20:22.825Z,17.08
2022-11-16T09:22:49.784Z,15.55
2022-11-16T09:25:19.140Z,15.00
2022-11-16T09:27:46.177Z,15.30
2022-11-16T09:30:13.759Z,16.15
2022-11-16T09:32:42.116Z,15.63
2022-11-16T09:35:09.933Z,15.68
2022-11-16T09:37:36.850Z,16.00
2022-11-16T09:40:04.336Z,16.63
2022-11-16T09:42:43.383Z,16.52
2022-11-16T09:45:18.349Z,14.93
2022-11-16T09:47:50.139Z,14.82
2022-11-16T09:50:25.718Z,14.93
2022-11-16T09:52:56.281Z,14.60
2022-11-16T09:55:28.533Z,14.90
2022-11-16T09:57:58.668Z,12.30
2022-11-16T10:00:25.908Z,11.30
2022-11-16T10:03:02.578Z,10.85
2022-11-16T10:05:35.011Z,10.73
2022-11-16T10:08:09.906Z,10.43
2022-11-16T10:13:17.788Z,9.93
2022-11-16T10:16:01.285Z,9.57
2022-11-16T10:18:42.901Z,10.75
2022-11-16T10:21:35.014Z,9.50
2022-11-16T10:24:23.701Z,11.05
2022-11-16T10:26:59.558Z,10.55
2022-11-16T10:29:38.447Z,9.07
2022-11-16T10:32:16.447Z,9.30
2022-11-16T10:34:50.955Z,8.85
2022-11-16T10:37:18.015Z,8.75
2022-11-16T10:39:47.949Z,9.07
2022-11-16T10:42:20.016Z,9.32
2022-11-16T10:44:53.932Z,8.93
2022-11-16T10:47:28.209Z,8.85
2022-11-16T10:50:02.823Z,9.15
2022-11-16T10:52:29.762Z,9.15
2022-11-16T10:54:56.689Z,7.85
2022-11-16T10:57:26.547Z,7.35
2022-11-16T10:59:58.710Z,8.70
2022-11-16T11:02:29.243Z,7.25
2022-11-16T11:05:16.335Z,7.15
2022-11-16T11:07:47.460Z,7.20
2022-11-16T11:10:28.885Z,8.00
2022-11-16T11:13:26.442Z,7.78
2022-11-16T11:16:14.058Z,8.05
2022-11-16T11:18:41.094Z,9.35
2022-11-16T11:21:16.801Z,9.63
2022-11-16T11:23:46.799Z,10.35
2022-11-16T11:26:36.166Z,10.10
2022-11-16T11:29:20.162Z,9.55
2022-11-16T11:31:50.369Z,9.20
2022-11-16T11:34:20.716Z,10.98
2022-11-16T11:36:52.569Z,12.48
2022-11-16T11:39:30.048Z,13.20
2022-11-16T11:42:06.355Z,12.57
2022-11-16T11:44:42.395Z,12.65
2022-11-16T11:50:17.227Z,17.35
2022-11-16T11:52:55.271Z,16.10
2022-11-16T11:55:22.453Z,12.32
2022-11-16T11:57:54.008Z,11.95
2022-11-16T12:00:21.365Z,12.32
2022-11-16T12:03:17.493Z,12.27
2022-11-16T12:06:02.881Z,13.55
2022-11-16T12:08:47.849Z,12.77
2022-11-16T12:11:26.493Z,13.13
2022-11-16T12:14:04.182Z,12.00
2022-11-16T12:16:39.877Z,12.20
2022-11-16T12:19:26.086Z,11.25
2022-11-16T12:22:06.160Z,11.05
2022-11-16T12:24:48.639Z,9.75
2022-11-16T12:27:27.159Z,10.30
2022-11-16T12:30:03.786Z,10.88
2022-11-16T12:32:49.412Z,9.88
2022-11-16T12:35:37.073Z,9.50
2022-11-16T12:38:23.111Z,10.10
2022-11-16T12:41:08.650Z,11.25
2022-11-16T12:43:44.871Z,10.30
2022-11-16T12:46:21.389Z,10.77
2022-11-16T12:49:37.511Z,11.63
2022-11-16T12:52:18.390Z,10.43
2022-11-16T12:55:28.681Z,9.90
2022-11-16T12:58:14.475Z,7.95
2022-11-16T13:00:53.228Z,8.77
2022-11-16T13:03:23.726Z,8.55
2022-11-16T13:05:57.788Z,8.98
2022-11-16T13:08:42.114Z,8.65
2022-11-16T13:11:14.987Z,9.20
2022-11-16T13:13:51.423Z,7.80
2022-11-16T13:16:21.233Z,8.52
2022-11-16T13:18:48.603Z,8.50
2022-11-16T13:21:26.622Z,8.45
2022-11-16T13:24:06.704Z,8.23
2022-11-16T13:26:40.823Z,13.57
2022-11-16T13:29:19.169Z,5.45
2022-11-16T13:31:54.096Z,4.20
2022-11-16T13:34:24.955Z,4.45
2022-11-16T13:36:52.046Z,4.38
2022-11-16T13:39:22.541Z,4.32
2022-11-16T13:41:51.695Z,4.40
2022-11-16T13:44:30.195Z,4.75
2022-11-16T13:47:04.680Z,7.30
2022-11-16T13:49:37.932Z,7.20
2022-11-16T13:52:22.701Z,6.53
2022-11-16T13:54:52.939Z,7.53
2022-11-16T13:57:24.793Z,6.70
2022-11-16T14:00:08.565Z,6.70
2022-11-16T14:02:37.259Z,9.88
2022-11-16T14:05:13.812Z,10.65
2022-11-16T14:07:47.381Z,8.63
2022-11-16T14:10:52.779Z,8.77
2022-11-16T14:13:47.375Z,5.78
2022-11-16T14:16:43.680Z,6.20
2022-11-16T14:19:47.717Z,6.45
2022-11-16T14:22:22.823Z,6.15
2022-11-16T14:24:57.974Z,7.40
2022-11-16T14:27:35.096Z,7.80
2022-11-16T14:30:20.034Z,8.00
2022-11-16T14:32:52.312Z,7.65
2022-11-16T14:35:34.005Z,7.90
2022-11-16T14:38:03.401Z,10.82
2022-11-16T14:40:34.394Z,10.23
2022-11-16T14:43:21.589Z,9.90
2022-11-16T14:45:54.991Z,10.02
2022-11-16T14:48:28.385Z,9.45
2022-11-16T14:51:03.625Z,9.20
2022-11-16T14:53:32.131Z,9.50
2022-11-16T14:56:07.258Z,8.40
2022-11-16T14:58:34.264Z,9.63
2022-11-16T15:01:04.004Z,9.00
2022-11-16T15:03:37.151Z,12.43
2022-11-16T15:06:06.252Z,9.60
2022-11-16T15:08:37.568Z,9.30
2022-11-16T15:11:20.513Z,9.63
2022-11-16T15:13:47.581Z,11.40
2022-11-16T15:16:16.867Z,10.65
2022-11-16T15:18:58.342Z,10.43
2022-11-16T15:21:26.573Z,8.93
2022-11-16T15:24:15.893Z,9.25
2022-11-16T15:26:40.559Z,8.93
2022-11-16T15:29:14.976Z,9.13
2022-11-16T15:31:42.783Z,9.27
2022-11-16T15:34:12.980Z,8.88
2022-11-16T15:36:41.173Z,8.82
2022-11-16T15:39:13.291Z,8.63
2022-11-16T15:41:40.930Z,8.32
2022-11-16T15:44:14.608Z,8.20
2022-11-16T15:46:44.390Z,8.48
2022-11-16T15:49:23.568Z,8.13
2022-11-16T15:51:51.081Z,9.15
2022-11-16T15:54:23.595Z,8.73
2022-11-16T15:56:52.181Z,24.25
2022-11-16T15:59:24.006Z,20.50
2022-11-16T16:01:51.037Z,20.50
2022-11-16T16:04:19.485Z,16.33
2022-11-16T16:06:48.598Z,23.58
2022-11-16T16:09:25.620Z,13.88
2022-11-16T16:11:53.498Z,11.57
2022-11-16T16:14:25.836Z,8.27
2022-11-16T16:16:54.786Z,7.70
2022-11-16T16:19:32.409Z,7.53
2022-11-16T16:22:00.183Z,7.32
2022-11-16T16:24:42.621Z,7.85
2022-11-16T16:27:11.966Z,8.07
2022-11-16T16:29:38.985Z,8.90
2022-11-16T16:32:06.340Z,12.90
2022-11-16T16:34:37.847Z,10.70
2022-11-16T16:37:12.878Z,10.23
2022-11-16T16:39:41.021Z,9.40
2022-11-16T16:42:11.672Z,11.00
2022-11-16T16:44:38.842Z,12.80
2022-11-16T16:47:06.379Z,15.00
2022-11-16T16:49:34.849Z,14.95
2022-11-16T16:52:01.908Z,20.80
2022-11-16T16:54:28.976Z,19.30
2022-11-16T16:56:58.707Z,18.63
2022-11-16T16:59:25.770Z,15.40
2022-11-16T17:01:56.898Z,13.45
2022-11-16T17:04:25.023Z,13.85
2022-11-16T17:06:54.374Z,13.95
2022-11-16T17:09:21.920Z,14.18
2022-11-16T17:11:48.976Z,13.80
2022-11-16T17:14:16.424Z,14.93
2022-11-16T17:16:43.726Z,13.93
2022-11-16T17:19:11.046Z,14.35
2022-11-16T17:21:38.523Z,17.67
2022-11-16T17:24:08.243Z,15.75
2022-11-16T17:26:35.699Z,16.05
2022-11-16T17:29:02.906Z,18.90
2022-11-16T17:31:29.892Z,18.77
2022-11-16T17:33:59.705Z,16.38
2022-11-16T17:36:26.914Z,17.00
2022-11-16T17:38:54.093Z,16.25
2022-11-16T17:41:23.031Z,16.92
2022-11-16T17:43:54.763Z,17.88
2022-11-16T17:46:24.364Z,18.60
2022-11-16T17:48:51.754Z,20.98
2022-11-16T17:51:22.558Z,19.45
2022-11-16T17:53:50.594Z,19.95
2022-11-16T17:56:22.330Z,18.48
2022-11-16T17:58:52.161Z,19.23
2022-11-16T18:01:21.724Z,30.92
2022-11-16T18:03:49.468Z,26.67
2022-11-16T18:06:18.210Z,25.05
2022-11-16T18:08:45.673Z,26.30
2022-11-16T18:11:15.050Z,32.80
2022-11-16T18:13:43.643Z,26.63
2022-11-16T18:16:13.824Z,23.52
2022-11-16T18:18:41.590Z,20.08
2022-11-16T18:21:09.386Z,17.48
2022-11-16T18:23:37.537Z,15.93
2022-11-16T18:26:07.941Z,14.70
2022-11-16T18:28:34.965Z,16.30
2022-11-16T18:31:05.943Z,14.55
2022-11-16T18:33:37.332Z,13.38
2022-11-16T18:36:05.868Z,13.00
2022-11-16T18:38:33.053Z,13.48
2022-11-16T18:41:06.751Z,13.63
2022-11-16T18:43:34.643Z,14.18
2022-11-16T18:46:02.055Z,15.10
2022-11-16T18:48:29.215Z,14.68
2022-11-16T18:50:59.570Z,15.35
2022-11-16T18:53:26.593Z,16.60
2022-11-16T18:55:57.853Z,15.77
2022-11-16T18:58:49.227Z,14.50
2022-11-16T19:01:14.950Z,14.70
2022-11-16T19:03:42.598Z,14.00
2022-11-16T19:06:12.016Z,15.82
2022-11-16T19:08:41.438Z,14.73
2022-11-16T19:11:10.470Z,14.63
2022-11-16T19:13:38.115Z,14.60
2022-11-16T19:16:05.901Z,15.00
2022-11-16T19:18:32.828Z,14.18
2022-11-16T19:21:04.465Z,17.23
2022-11-16T19:23:37.076Z,17.17
2022-11-16T19:26:04.996Z,24.88
2022-11-16T19:28:35.969Z,26.90
2022-11-16T19:31:07.621Z,20.30
2022-11-16T19:33:35.248Z,21.75
2022-11-16T19:36:07.008Z,29.55
2022-11-16T19:38:34.429Z,21.10
2022-11-16T19:41:03.143Z,22.17
2022-11-16T19:43:30.094Z,26.10
2022-11-16T19:46:02.139Z,24.17
2022-11-16T19:48:30.137Z,23.33
2022-11-16T19:50:57.149Z,24.10
2022-11-16T19:53:24.102Z,27.27
2022-11-16T19:55:54.238Z,29.70
2022-11-16T19:58:22.588Z,37.85
2022-11-16T20:00:49.652Z,39.47
2022-11-16T20:03:16.736Z,38.28
2022-11-16T20:05:43.631Z,33.00
2022-11-16T20:08:10.830Z,31.92
2022-11-16T20:10:37.805Z,29.98
2022-11-16T20:13:04.810Z,29.73
2022-11-16T20:15:33.267Z,30.80
2022-11-16T20:18:00.247Z,25.08
2022-11-16T20:20:27.228Z,26.13
2022-11-16T20:22:54.216Z,21.38
2022-11-16T20:25:21.187Z,20.60
2022-11-16T20:27:48.127Z,17.65
2022-11-16T20:30:15.637Z,18.27
2022-11-16T20:32:43.970Z,17.83
2022-11-16T20:35:13.687Z,17.95
2022-11-16T20:37:45.165Z,17.92
2022-11-16T20:40:12.642Z,18.55
2022-11-16T20:42:39.633Z,20.52
2022-11-16T20:45:08.137Z,21.25
2022-11-16T20:47:35.065Z,18.92
2022-11-16T20:50:03.686Z,19.90
2022-11-16T20:52:30.642Z,22.48
2022-11-16T20:54:57.587Z,20.85
2022-11-16T20:57:24.828Z,23.63
2022-11-16T20:59:51.737Z,24.02
2022-11-16T21:02:18.689Z,23.33
2022-11-16T21:04:45.757Z,30.92
2022-11-16T21:07:14.207Z,29.85
2022-11-16T21:09:59.552Z,29.33
2022-11-16T21:12:45.372Z,23.85
2022-11-16T21:15:12.415Z,27.80
2022-11-16T21:17:39.372Z,23.25
2022-11-16T21:20:26.221Z,23.83
2022-11-16T21:22:55.655Z,26.63
2022-11-16T21:25:22.682Z,23.75
2022-11-16T21:27:49.602Z,19.90
2022-11-16T21:30:17.096Z,22.55
2022-11-16T21:32:44.003Z,23.83
2022-11-16T21:35:11.063Z,21.13
2022-11-16T21:37:38.069Z,22.00
2022-11-16T21:40:07.633Z,22.00
2022-11-16T21:42:34.622Z,18.35
2022-11-16T21:45:01.577Z,16.27
2022-11-16T21:47:29.229Z,17.83
2022-11-16T21:50:24.661Z,15.73
2022-11-16T21:52:44.257Z,15.43
2022-11-16T21:55:12.754Z,14.32
2022-11-16T21:57:39.759Z,14.10
2022-11-16T22:00:08.117Z,13.45
2022-11-16T22:02:40.977Z,13.40
2022-11-16T22:05:27.903Z,12.77
2022-11-16T22:07:54.970Z,13.40
2022-11-16T22:10:23.242Z,13.30
2022-11-16T22:12:50.145Z,12.75
2022-11-16T22:15:17.343Z,12.23
2022-11-16T22:17:44.937Z,13.00
2022-11-16T22:20:12.302Z,13.15
2022-11-16T22:22:39.320Z,13.10
2022-11-16T22:25:07.229Z,11.85
2022-11-16T22:27:52.356Z,11.55
2022-11-16T22:30:22.840Z,12.00
2022-11-16T22:32:49.822Z,11.93
2022-11-16T22:35:16.852Z,10.95
2022-11-16T22:37:43.874Z,11.98
2022-11-16T22:40:17.470Z,11.75
2022-11-16T22:42:46.184Z,11.00
2022-11-16T22:45:13.158Z,11.93
2022-11-16T22:47:40.093Z,11.40
2022-11-16T22:50:07.292Z,12.20
2022-11-16T22:52:34.317Z,12.18
2022-11-16T22:55:01.367Z,12.55
2022-11-16T22:57:28.265Z,12.50
2022-11-16T22:59:56.568Z,12.45
2022-11-16T23:02:23.547Z,12.75
2022-11-16T23:04:50.452Z,12.45
2022-11-16T23:07:17.403Z,11.70
2022-11-16T23:09:44.340Z,12.02
2022-11-16T23:12:29.452Z,11.70
2022-11-16T23:15:16.428Z,12.20
2022-11-16T23:17:44.981Z,12.63
2022-11-16T23:20:30.364Z,13.05
2022-11-16T23:23:15.733Z,14.77
2022-11-16T23:26:01.341Z,17.50
2022-11-16T23:28:28.359Z,15.73
2022-11-16T23:30:56.844Z,15.77
2022-11-16T23:33:43.804Z,15.02
2022-11-16T23:36:11.270Z,15.23
2022-11-16T23:38:38.434Z,16.25
2022-11-16T23:41:23.936Z,16.58
2022-11-16T23:44:00.169Z,14.65
2022-11-16T23:46:30.741Z,14.50
2022-11-16T23:48:57.823Z,14.88
2022-11-16T23:51:25.367Z,15.73
2022-11-16T23:53:52.903Z,13.93
2022-11-16T23:56:20.661Z,14.73
2022-11-16T23:58:47.971Z,13.93
